Main page
Satellite images 15-day forecastsClimateMarine weather Cyclones Lightning AirportsFAQ Newsletter About
Weather : Europe Africa North America South America Asia Australia-Oceania Others
Languages Contact

Birmingham, England

latitude: 52-27N, longitude: 001-44W, elevation: 99 m


METAR: EGBB 250020Z AUTO 17003KT 9999 NCD 08/07 Q1015
TAF: EGBB 242257Z 2500/2524 21009KT 9999 FEW030 PROB40 2503/2510 6000 PROB30 TEMPO 2506/2512 BKN014

Time: 01:35 (00:35 UTC)

Current weather observation

The report was made 15 minutes ago, at 00:20 UTC
Wind 3 kt from the South
Temperature 8°C
Humidity 93%
Pressure 1015 hPa
Visibility 10 km or more

Change units

Forecast

The report was made 1 hour and 38 minutes ago, at 22:57 UTC
Forecast valid from 25 at 00 UTC to 25 at 24 UTC
Wind 9 kt from the South/Southwest
Visibility 10 km or more
Few clouds at a height of 3000 ft
Probability 40%
from 25 at 03 UTC to 25 at 10 UTC
Visibility: 6000 m
Probability 30% :
Temporary
from 25 at 06 UTC to 25 at 12 UTC
Broken clouds at a height of 1400 ft
The information on this site is subject to a disclaimer
Weather : Europe Africa North America South America Asia Australia-Oceania Others
Satellite images 15-day forecastsClimateMarine weather Cyclones Lightning AirportsFAQ Languages Contact Newsletter About